createdAt,value
2018-06-03T00:00:35.081Z,15.30
2018-06-03T00:03:03.492Z,15.55
2018-06-03T00:05:31.924Z,14.53
2018-06-03T00:08:00.319Z,14.40
2018-06-03T00:10:28.703Z,14.87
2018-06-03T00:12:57.134Z,15.40
2018-06-03T00:15:25.527Z,15.75
2018-06-03T00:17:54.103Z,14.98
2018-06-03T00:20:36.714Z,15.13
2018-06-03T00:23:04.841Z,14.80
2018-06-03T00:25:33.241Z,15.03
2018-06-03T00:28:01.665Z,15.85
2018-06-03T00:30:30.083Z,15.32
2018-06-03T00:32:58.486Z,15.30
2018-06-03T00:35:26.988Z,15.03
2018-06-03T00:37:55.116Z,15.50
2018-06-03T00:40:23.550Z,15.85
2018-06-03T00:42:51.943Z,16.02
2018-06-03T00:45:20.341Z,15.85
2018-06-03T00:47:48.741Z,16.07
2018-06-03T00:50:17.168Z,15.80
2018-06-03T00:52:45.578Z,15.85
2018-06-03T00:55:13.980Z,16.30
2018-06-03T00:57:42.417Z,16.90
2018-06-03T01:00:10.811Z,16.83
2018-06-03T01:02:39.216Z,16.27
2018-06-03T01:05:07.641Z,16.85
2018-06-03T01:07:35.738Z,17.65
2018-06-03T01:10:04.194Z,17.30
2018-06-03T01:12:32.607Z,16.55
2018-06-03T01:15:00.998Z,17.10
2018-06-03T01:17:29.491Z,17.23
2018-06-03T01:19:57.893Z,17.65
2018-06-03T01:22:26.323Z,17.55
2018-06-03T01:24:54.782Z,18.05
2018-06-03T01:27:23.213Z,18.70
2018-06-03T01:29:51.643Z,19.65
2018-06-03T01:32:20.054Z,18.42
2018-06-03T01:34:48.443Z,18.40
2018-06-03T01:37:16.867Z,18.80
2018-06-03T01:39:45.265Z,18.83
2018-06-03T01:42:13.670Z,18.65
2018-06-03T01:44:42.062Z,19.30
2018-06-03T01:47:10.466Z,19.80
2018-06-03T01:49:38.859Z,21.00
2018-06-03T01:52:06.969Z,21.30
2018-06-03T01:54:35.366Z,20.88
2018-06-03T01:57:03.770Z,20.92
2018-06-03T01:59:32.395Z,21.17
2018-06-03T02:02:00.783Z,21.48
2018-06-03T02:04:29.265Z,21.62
2018-06-03T02:06:57.665Z,20.32
2018-06-03T02:09:26.086Z,19.80
2018-06-03T02:11:54.191Z,19.70
2018-06-03T02:14:22.576Z,19.67
2018-06-03T02:16:50.969Z,19.05
2018-06-03T02:19:19.413Z,20.60
2018-06-03T02:21:47.797Z,19.80
2018-06-03T02:24:16.208Z,20.70
2018-06-03T02:26:44.607Z,20.03
2018-06-03T02:29:13.016Z,20.87
2018-06-03T02:31:41.130Z,20.65
2018-06-03T02:34:09.520Z,20.30
2018-06-03T02:36:37.936Z,20.10
2018-06-03T02:39:06.679Z,21.40
2018-06-03T02:41:35.097Z,21.77
2018-06-03T02:44:03.510Z,22.98
2018-06-03T02:46:31.920Z,24.10
2018-06-03T02:49:00.374Z,24.80
2018-06-03T02:51:28.796Z,24.63
2018-06-03T02:53:57.206Z,23.90
2018-06-03T02:56:25.325Z,25.13
2018-06-03T02:58:53.739Z,24.10
2018-06-03T03:01:22.165Z,23.75
2018-06-03T03:03:50.559Z,23.73
2018-06-03T03:06:18.971Z,24.18
2018-06-03T03:08:47.365Z,23.70
2018-06-03T03:11:15.764Z,25.40
2018-06-03T03:13:44.168Z,23.70
2018-06-03T03:16:12.582Z,23.80
2018-06-03T03:18:40.972Z,24.60
2018-06-03T03:21:09.374Z,25.60
2018-06-03T03:23:37.801Z,25.25
2018-06-03T03:26:06.319Z,25.32
2018-06-03T03:28:34.789Z,24.07
2018-06-03T03:31:03.248Z,24.37
2018-06-03T03:33:31.666Z,24.65
2018-06-03T03:36:00.067Z,25.50
2018-06-03T03:38:28.469Z,25.10
2018-06-03T03:40:56.878Z,26.03
2018-06-03T03:43:25.273Z,25.23
2018-06-03T03:45:53.686Z,24.90
2018-06-03T03:48:22.092Z,26.60
2018-06-03T03:50:50.492Z,27.52
2018-06-03T03:53:18.919Z,28.23
2018-06-03T03:55:47.374Z,26.07
2018-06-03T03:58:15.765Z,26.05
2018-06-03T04:00:44.168Z,25.10
2018-06-03T04:03:12.627Z,24.27
2018-06-03T04:05:40.738Z,26.47
2018-06-03T04:08:09.144Z,26.97
2018-06-03T04:10:37.523Z,27.25
2018-06-03T04:13:05.939Z,27.37
2018-06-03T04:15:34.338Z,30.25
2018-06-03T04:18:02.742Z,29.30
2018-06-03T04:20:31.136Z,30.10
2018-06-03T04:22:59.538Z,29.70
2018-06-03T04:25:28.022Z,29.90
2018-06-03T04:27:56.445Z,28.73
2018-06-03T04:30:24.874Z,29.60
2018-06-03T04:32:53.275Z,30.50
2018-06-03T04:35:21.703Z,31.62
2018-06-03T04:37:50.114Z,31.50
2018-06-03T04:40:18.519Z,30.17
2018-06-03T04:42:46.935Z,32.50
2018-06-03T04:45:15.353Z,31.60
2018-06-03T04:47:43.742Z,31.87
2018-06-03T04:50:11.876Z,31.27
2018-06-03T04:52:40.375Z,31.80
2018-06-03T04:55:08.843Z,32.50
2018-06-03T04:57:37.226Z,31.15
2018-06-03T05:00:05.659Z,33.15
2018-06-03T05:02:34.112Z,33.30
2018-06-03T05:05:02.544Z,31.77
2018-06-03T05:07:30.992Z,33.18
2018-06-03T05:09:59.433Z,32.95
2018-06-03T05:12:27.851Z,33.02
2018-06-03T05:14:56.256Z,34.38
2018-06-03T05:17:24.675Z,34.90
2018-06-03T05:19:53.080Z,35.70
2018-06-03T05:22:21.547Z,34.60
2018-06-03T05:24:49.651Z,35.95
2018-06-03T05:27:18.053Z,35.03
2018-06-03T05:29:46.467Z,35.80
2018-06-03T05:32:14.868Z,35.10
2018-06-03T05:34:42.957Z,35.10
2018-06-03T05:37:11.386Z,36.88
2018-06-03T05:39:39.794Z,37.73
2018-06-03T05:42:07.900Z,37.75
2018-06-03T05:44:36.406Z,36.10
2018-06-03T05:47:05.111Z,38.08
2018-06-03T05:49:33.514Z,37.53
2018-06-03T05:52:01.637Z,37.48
2018-06-03T05:54:30.119Z,37.00
2018-06-03T05:56:58.619Z,39.00
2018-06-03T05:59:27.055Z,38.48
2018-06-03T06:01:55.471Z,39.23
2018-06-03T06:04:23.927Z,39.35
2018-06-03T06:06:52.393Z,36.07
2018-06-03T06:09:20.795Z,38.90
2018-06-03T06:11:49.254Z,38.65
2018-06-03T06:14:17.652Z,36.88
2018-06-03T06:16:46.061Z,40.73
2018-06-03T06:19:14.476Z,38.90
2018-06-03T06:21:42.902Z,40.45
2018-06-03T06:24:11.339Z,42.05
2018-06-03T06:26:39.731Z,39.48
2018-06-03T06:29:08.188Z,38.92
2018-06-03T06:31:36.291Z,40.63
2018-06-03T06:34:04.687Z,39.40
2018-06-03T06:36:33.112Z,39.90
2018-06-03T06:39:01.225Z,38.50
2018-06-03T06:41:29.723Z,38.63
2018-06-03T06:43:58.123Z,41.60
2018-06-03T06:46:26.556Z,38.73
2018-06-03T06:48:54.950Z,43.63
2018-06-03T06:51:23.395Z,39.70
2018-06-03T06:53:51.827Z,38.05
2018-06-03T06:56:20.244Z,37.93
2018-06-03T06:58:48.664Z,38.23
2018-06-03T07:01:17.095Z,38.50
2018-06-03T07:03:45.475Z,39.48
2018-06-03T07:06:13.878Z,39.67
2018-06-03T07:08:42.351Z,38.00
2018-06-03T07:11:10.762Z,39.23
2018-06-03T07:13:39.175Z,38.02
2018-06-03T07:16:07.650Z,39.60
2018-06-03T07:18:36.072Z,38.88
2018-06-03T07:21:04.187Z,39.78
2018-06-03T07:23:32.607Z,39.70
2018-06-03T07:26:01.015Z,37.85
2018-06-03T07:28:29.439Z,38.05
2018-06-03T07:30:57.860Z,37.95
2018-06-03T07:33:26.286Z,38.20
2018-06-03T07:35:54.694Z,38.30
2018-06-03T07:38:23.175Z,36.45
2018-06-03T07:40:51.579Z,37.10
2018-06-03T07:43:19.694Z,35.80
2018-06-03T07:45:48.106Z,35.83
2018-06-03T07:48:16.548Z,36.53
2018-06-03T07:50:44.979Z,36.85
2018-06-03T07:53:13.420Z,36.40
2018-06-03T07:55:41.851Z,34.55
2018-06-03T07:58:09.964Z,37.38
2018-06-03T08:00:38.382Z,35.80
2018-06-03T08:03:06.812Z,34.15
2018-06-03T08:05:35.255Z,33.05
2018-06-03T08:08:03.733Z,35.17
2018-06-03T08:10:31.842Z,34.65
2018-06-03T08:13:00.267Z,32.67
2018-06-03T08:15:28.688Z,27.03
2018-06-03T08:17:57.192Z,28.77
2018-06-03T08:20:25.597Z,24.40
2018-06-03T08:22:54.028Z,22.90
2018-06-03T08:25:22.171Z,19.10
2018-06-03T08:27:50.567Z,22.85
2018-06-03T08:30:18.975Z,22.40
2018-06-03T08:32:47.411Z,21.68
2018-06-03T08:35:15.851Z,21.80
2018-06-03T08:37:44.248Z,24.23
2018-06-03T08:40:12.698Z,37.28
2018-06-03T08:42:41.131Z,26.95
2018-06-03T08:45:09.538Z,20.35
2018-06-03T08:47:37.964Z,21.82
2018-06-03T08:50:06.395Z,19.30
2018-06-03T08:52:34.830Z,18.52
2018-06-03T08:55:03.261Z,19.65
2018-06-03T08:57:31.669Z,17.12
2018-06-03T09:00:00.103Z,19.35
2018-06-03T09:02:28.514Z,20.50
2018-06-03T09:04:56.911Z,21.97
2018-06-03T09:07:25.308Z,23.40
2018-06-03T09:09:53.707Z,24.50
2018-06-03T09:12:22.099Z,26.43
2018-06-03T09:14:50.587Z,24.65
2018-06-03T09:17:18.978Z,24.12
2018-06-03T09:19:47.383Z,35.10
2018-06-03T09:22:15.780Z,26.42
2018-06-03T09:24:44.181Z,22.77
2018-06-03T09:27:12.607Z,22.32
2018-06-03T09:29:41.009Z,21.52
2018-06-03T09:32:09.431Z,19.95
2018-06-03T09:34:37.835Z,17.32
2018-06-03T09:37:06.255Z,18.57
2018-06-03T09:39:34.659Z,18.57
2018-06-03T09:42:02.840Z,18.70
2018-06-03T09:44:31.235Z,17.67
2018-06-03T09:46:59.635Z,18.07
2018-06-03T09:49:28.061Z,15.55
2018-06-03T09:51:56.519Z,15.25
2018-06-03T09:54:24.949Z,16.05
2018-06-03T09:56:53.363Z,17.70
2018-06-03T09:59:21.758Z,16.30
2018-06-03T10:01:50.146Z,13.10
2018-06-03T10:04:18.573Z,14.70
2018-06-03T10:06:46.688Z,14.30
2018-06-03T10:09:15.527Z,16.73
2018-06-03T10:11:43.903Z,20.85
2018-06-03T10:14:12.346Z,21.60
2018-06-03T10:16:40.787Z,21.60
2018-06-03T10:19:09.292Z,21.45
2018-06-03T10:21:37.694Z,20.25
2018-06-03T10:24:06.274Z,17.90
2018-06-03T10:26:34.676Z,16.70
2018-06-03T10:29:03.089Z,16.90
2018-06-03T10:31:31.511Z,17.48
2018-06-03T10:33:59.607Z,17.57
2018-06-03T10:36:28.022Z,17.92
2018-06-03T10:38:56.441Z,19.90
2018-06-03T10:41:24.864Z,18.60
2018-06-03T10:43:53.301Z,18.75
2018-06-03T10:46:21.694Z,19.90
2018-06-03T10:48:50.090Z,20.62
2018-06-03T10:51:18.620Z,20.00
2018-06-03T10:53:47.064Z,20.10
2018-06-03T10:56:15.552Z,20.08
2018-06-03T10:58:43.975Z,19.98
2018-06-03T11:01:12.082Z,20.90
2018-06-03T11:03:40.513Z,20.97
2018-06-03T11:06:08.606Z,20.60
2018-06-03T11:08:37.094Z,20.25
2018-06-03T11:11:05.523Z,19.67
2018-06-03T11:13:33.926Z,20.17
2018-06-03T11:16:02.388Z,21.12
2018-06-03T11:18:30.819Z,21.25
2018-06-03T11:20:59.379Z,21.65
2018-06-03T11:23:27.795Z,20.37
2018-06-03T11:25:56.218Z,19.07
2018-06-03T11:28:24.638Z,20.75
2018-06-03T11:30:53.063Z,21.30
2018-06-03T11:33:21.453Z,20.30
2018-06-03T11:35:49.848Z,21.70
2018-06-03T11:38:18.267Z,20.30
2018-06-03T11:40:46.662Z,21.05
2018-06-03T11:43:15.072Z,21.87
2018-06-03T11:45:43.536Z,21.55
2018-06-03T11:48:12.000Z,20.25
2018-06-03T11:50:40.471Z,21.90
2018-06-03T11:53:08.904Z,21.10
2018-06-03T11:55:37.308Z,19.92
2018-06-03T11:58:42.633Z,22.00
2018-06-03T12:01:10.732Z,21.27
2018-06-03T12:03:39.176Z,19.23
2018-06-03T12:06:07.599Z,19.82
2018-06-03T12:08:36.007Z,17.73
2018-06-03T12:11:04.568Z,18.30
2018-06-03T12:13:33.000Z,17.60
2018-06-03T12:16:01.423Z,18.42
2018-06-03T12:18:29.858Z,19.10
2018-06-03T12:20:58.244Z,18.35
2018-06-03T12:23:26.373Z,19.00
2018-06-03T12:25:54.846Z,18.60
2018-06-03T12:28:23.266Z,17.62
2018-06-03T12:30:51.686Z,17.40
2018-06-03T12:33:20.091Z,17.23
2018-06-03T12:35:48.524Z,15.13
2018-06-03T12:38:16.967Z,16.87
2018-06-03T12:40:45.367Z,16.25
2018-06-03T12:43:13.776Z,17.75
2018-06-03T12:45:42.208Z,17.65
2018-06-03T12:48:10.707Z,16.60
2018-06-03T12:50:39.162Z,16.48
2018-06-03T12:53:07.597Z,17.35
2018-06-03T12:55:36.027Z,16.90
2018-06-03T12:58:04.442Z,16.07
2018-06-03T13:00:32.884Z,15.98
2018-06-03T13:03:01.294Z,16.30
2018-06-03T13:05:29.426Z,15.98
2018-06-03T13:07:57.965Z,15.20
2018-06-03T13:10:26.370Z,14.20
2018-06-03T13:12:54.794Z,13.80
2018-06-03T13:15:23.250Z,15.80
2018-06-03T13:17:51.682Z,15.10
2018-06-03T13:20:19.786Z,15.23
2018-06-03T13:22:48.218Z,16.20
2018-06-03T13:25:16.354Z,15.30
2018-06-03T13:27:45.319Z,16.10
2018-06-03T13:30:13.783Z,16.60
2018-06-03T13:32:42.180Z,16.80
2018-06-03T13:35:10.605Z,16.55
2018-06-03T13:37:39.025Z,16.07
2018-06-03T13:40:07.439Z,16.32
2018-06-03T13:42:35.871Z,15.50
2018-06-03T13:45:04.024Z,16.40
2018-06-03T13:47:32.450Z,16.32
2018-06-03T13:50:00.887Z,15.20
2018-06-03T13:52:29.291Z,16.70
2018-06-03T13:54:57.704Z,18.23
2018-06-03T13:57:26.163Z,15.68
2018-06-03T13:59:54.601Z,21.60
2018-06-03T14:02:23.062Z,20.68
2018-06-03T14:04:51.443Z,18.70
2018-06-03T14:07:19.849Z,14.90
2018-06-03T14:09:48.287Z,14.90
2018-06-03T14:12:16.724Z,14.63
2018-06-03T14:14:45.133Z,13.22
2018-06-03T14:17:13.546Z,14.60
2018-06-03T14:19:41.987Z,12.47
2018-06-03T14:22:10.388Z,12.43
2018-06-03T14:24:38.815Z,13.93
2018-06-03T14:27:07.270Z,12.00
2018-06-03T14:29:35.814Z,12.47
2018-06-03T14:32:04.250Z,13.55
2018-06-03T14:34:32.655Z,11.73
2018-06-03T14:37:00.783Z,12.65
2018-06-03T14:39:29.506Z,13.00
2018-06-03T14:41:57.992Z,11.60
2018-06-03T14:44:26.434Z,12.03
2018-06-03T14:46:54.850Z,12.98
2018-06-03T14:49:23.359Z,12.65
2018-06-03T14:51:51.475Z,11.20
2018-06-03T14:54:19.883Z,11.30
2018-06-03T14:56:48.300Z,12.82
2018-06-03T14:59:16.656Z,12.93
2018-06-03T15:01:45.074Z,12.47
2018-06-03T15:04:13.464Z,12.70
2018-06-03T15:06:41.884Z,13.15
2018-06-03T15:09:10.592Z,11.43
2018-06-03T15:11:39.002Z,12.03
2018-06-03T15:14:07.396Z,11.68
2018-06-03T15:16:35.821Z,12.20
2018-06-03T15:19:04.281Z,9.40
2018-06-03T15:21:32.698Z,9.20
2018-06-03T15:24:01.124Z,10.00
2018-06-03T15:26:29.579Z,7.20
2018-06-03T15:28:57.992Z,8.20
2018-06-03T15:31:26.403Z,8.55
2018-06-03T15:33:54.572Z,8.10
2018-06-03T15:36:22.940Z,7.20
2018-06-03T15:38:51.345Z,8.25
2018-06-03T15:41:19.751Z,7.17
2018-06-03T15:43:48.204Z,7.60
2018-06-03T15:46:16.587Z,7.25
2018-06-03T15:48:44.969Z,7.15
2018-06-03T15:51:13.054Z,6.78
2018-06-03T15:53:41.637Z,6.40
2018-06-03T15:56:10.027Z,6.95
2018-06-03T15:58:38.451Z,7.30
2018-06-03T16:01:06.890Z,6.40
2018-06-03T16:03:35.315Z,6.78
2018-06-03T16:08:18.644Z,6.50
2018-06-03T16:10:47.050Z,6.92
2018-06-03T16:13:15.479Z,8.80
2018-06-03T16:15:43.876Z,9.58
2018-06-03T16:18:12.351Z,10.60
2018-06-03T16:20:47.387Z,11.38
2018-06-03T16:23:15.806Z,9.83
2018-06-03T16:25:44.211Z,10.50
2018-06-03T16:28:12.643Z,10.00
2018-06-03T16:30:41.025Z,9.30
2018-06-03T16:33:09.402Z,8.00
2018-06-03T16:35:37.804Z,7.92
2018-06-03T16:38:06.220Z,8.18
2018-06-03T16:40:34.343Z,8.60
2018-06-03T16:43:02.784Z,8.30
2018-06-03T16:45:31.213Z,8.03
2018-06-03T16:47:59.604Z,8.23
2018-06-03T16:50:28.006Z,8.90
2018-06-03T16:52:56.415Z,7.90
2018-06-03T16:55:24.843Z,7.73
2018-06-03T16:57:53.227Z,7.87
2018-06-03T17:00:21.621Z,7.50
2018-06-03T17:02:49.998Z,8.53
2018-06-03T17:05:18.437Z,8.10
2018-06-03T17:07:46.825Z,8.30
2018-06-03T17:10:15.257Z,8.85
2018-06-03T17:12:43.652Z,8.00
2018-06-03T17:15:12.081Z,8.18
2018-06-03T17:17:40.481Z,7.45
2018-06-03T17:20:08.900Z,7.65
2018-06-03T17:22:37.705Z,7.97
2018-06-03T17:25:06.143Z,7.90
2018-06-03T17:27:34.278Z,7.90
2018-06-03T17:30:02.715Z,6.92
2018-06-03T17:32:31.167Z,7.87
2018-06-03T17:34:59.612Z,7.85
2018-06-03T17:37:28.447Z,8.63
2018-06-03T17:39:56.535Z,8.40
2018-06-03T17:42:24.947Z,7.53
2018-06-03T17:44:53.380Z,7.30
2018-06-03T17:47:21.507Z,7.22
2018-06-03T17:49:49.904Z,6.90
2018-06-03T17:52:18.355Z,6.20
2018-06-03T17:54:46.792Z,6.10
2018-06-03T17:57:15.233Z,6.53
2018-06-03T17:59:43.644Z,6.58
2018-06-03T18:02:18.456Z,6.00
2018-06-03T18:04:46.867Z,6.70
2018-06-03T18:07:14.995Z,6.50
2018-06-03T18:09:43.428Z,6.95
2018-06-03T18:12:11.842Z,6.25
2018-06-03T18:14:40.306Z,7.05
2018-06-03T18:17:08.837Z,6.83
2018-06-03T18:19:37.227Z,6.65
2018-06-03T18:22:05.630Z,6.65
2018-06-03T18:24:34.070Z,6.80
2018-06-03T18:27:02.495Z,6.78
2018-06-03T18:29:30.924Z,7.05
2018-06-03T18:31:59.740Z,6.40
2018-06-03T18:34:28.064Z,6.80
2018-06-03T18:36:56.474Z,6.80
2018-06-03T18:39:24.887Z,6.17
2018-06-03T18:41:53.333Z,6.25
2018-06-03T18:44:21.750Z,7.00
2018-06-03T18:46:50.168Z,7.60
2018-06-03T18:49:18.589Z,7.17
2018-06-03T18:51:46.718Z,8.10
2018-06-03T18:54:15.144Z,7.40
2018-06-03T18:56:43.583Z,7.50
2018-06-03T18:59:12.068Z,7.83
2018-06-03T19:01:40.499Z,7.97
2018-06-03T19:04:08.919Z,7.95
2018-06-03T19:06:37.444Z,8.13
2018-06-03T19:09:10.432Z,8.40
2018-06-03T19:11:38.895Z,8.15
2018-06-03T19:14:07.394Z,9.63
2018-06-03T19:16:35.856Z,8.90
2018-06-03T19:19:04.339Z,8.75
2018-06-03T19:21:32.760Z,7.60
2018-06-03T19:24:01.171Z,8.75
2018-06-03T19:26:29.590Z,7.65
2018-06-03T19:28:58.000Z,8.53
2018-06-03T19:31:26.443Z,9.00
2018-06-03T19:33:54.864Z,8.95
2018-06-03T19:36:23.376Z,8.73
2018-06-03T19:38:51.919Z,8.80
2018-06-03T19:41:20.320Z,8.73
2018-06-03T19:43:48.770Z,8.40
2018-06-03T19:46:17.276Z,8.55
2018-06-03T19:49:06.271Z,7.90
2018-06-03T19:51:35.217Z,7.80
2018-06-03T19:54:03.635Z,7.97
2018-06-03T19:56:32.024Z,7.73
2018-06-03T19:59:00.431Z,7.30
2018-06-03T20:01:28.816Z,7.40
2018-06-03T20:03:57.224Z,7.85
2018-06-03T20:06:25.673Z,8.20
2018-06-03T20:08:54.058Z,9.65
2018-06-03T20:11:22.654Z,8.78
2018-06-03T20:13:50.783Z,8.33
2018-06-03T20:16:19.248Z,8.10
2018-06-03T20:18:48.359Z,8.05
2018-06-03T20:21:16.780Z,8.17
2018-06-03T20:23:44.886Z,8.07
2018-06-03T20:26:13.310Z,8.15
2018-06-03T20:28:41.700Z,8.30
2018-06-03T20:31:10.131Z,8.20
2018-06-03T20:33:38.537Z,7.92
2018-06-03T20:36:07.019Z,9.05
2018-06-03T20:38:35.423Z,8.33
2018-06-03T20:41:03.851Z,7.43
2018-06-03T20:43:32.276Z,8.10
2018-06-03T20:46:00.715Z,7.50
2018-06-03T20:48:29.211Z,8.20
2018-06-03T20:50:57.615Z,8.28
2018-06-03T20:53:26.028Z,8.90
2018-06-03T20:55:54.433Z,8.05
2018-06-03T20:58:22.851Z,8.28
2018-06-03T21:00:51.247Z,8.60
2018-06-03T21:03:19.666Z,8.78
2018-06-03T21:05:48.061Z,8.90
2018-06-03T21:08:16.484Z,8.68
2018-06-03T21:10:44.875Z,9.00
2018-06-03T21:13:13.308Z,9.80
2018-06-03T21:15:41.720Z,9.50
2018-06-03T21:18:09.809Z,8.67
2018-06-03T21:20:38.223Z,8.30
2018-06-03T21:23:06.627Z,9.13
2018-06-03T21:25:35.068Z,8.80
2018-06-03T21:28:03.511Z,8.43
2018-06-03T21:30:31.629Z,9.00
2018-06-03T21:33:00.057Z,8.30
2018-06-03T21:35:28.458Z,8.10
2018-06-03T21:37:56.863Z,8.10
2018-06-03T21:40:25.281Z,8.60
2018-06-03T21:42:53.695Z,9.13
2018-06-03T21:45:22.140Z,9.15
2018-06-03T21:47:50.575Z,9.30
2018-06-03T21:50:18.996Z,8.98
2018-06-03T21:52:47.514Z,9.10
2018-06-03T21:55:15.924Z,9.40
2018-06-03T21:57:44.398Z,9.40
2018-06-03T22:00:12.799Z,8.87
2018-06-03T22:02:41.217Z,8.77
2018-06-03T22:05:09.661Z,9.10
2018-06-03T22:07:38.048Z,8.93
2018-06-03T22:10:06.767Z,9.50
2018-06-03T22:12:35.347Z,10.25
2018-06-03T22:15:03.486Z,10.00
2018-06-03T22:17:31.889Z,10.45
2018-06-03T22:20:00.326Z,10.15
2018-06-03T22:22:28.720Z,9.83
2018-06-03T22:24:57.154Z,9.97
2018-06-03T22:27:25.526Z,9.68
2018-06-03T22:29:53.666Z,10.70
2018-06-03T22:32:22.086Z,10.30
2018-06-03T22:34:50.620Z,11.28
2018-06-03T22:37:19.047Z,11.45
2018-06-03T22:39:54.286Z,12.13
2018-06-03T22:42:22.737Z,13.95
2018-06-03T22:44:51.159Z,12.43
2018-06-03T22:47:19.590Z,13.03
2018-06-03T22:49:47.983Z,12.40
2018-06-03T22:52:16.140Z,11.57
2018-06-03T22:54:44.566Z,13.20
2018-06-03T22:57:51.295Z,12.30
2018-06-03T23:00:28.721Z,12.17
2018-06-03T23:03:02.444Z,12.40
2018-06-03T23:05:31.168Z,11.50
2018-06-03T23:07:59.592Z,11.90
2018-06-03T23:10:28.039Z,12.50
2018-06-03T23:12:56.547Z,12.33
2018-06-03T23:15:24.982Z,12.87
2018-06-03T23:17:53.655Z,12.10
2018-06-03T23:20:22.107Z,12.03
2018-06-03T23:22:50.551Z,12.50
2018-06-03T23:25:18.666Z,12.75
2018-06-03T23:27:47.139Z,12.35
2018-06-03T23:30:15.565Z,13.20
2018-06-03T23:32:44.018Z,13.18
2018-06-03T23:35:12.427Z,13.35
2018-06-03T23:37:40.838Z,14.18
2018-06-03T23:40:08.957Z,13.40
2018-06-03T23:42:37.382Z,13.38
2018-06-03T23:45:05.545Z,13.50
2018-06-03T23:47:33.964Z,13.70
2018-06-03T23:50:02.405Z,13.40
2018-06-03T23:52:30.806Z,14.60
2018-06-03T23:54:59.218Z,14.37
2018-06-03T23:57:27.614Z,15.03
2018-06-03T23:59:56.071Z,14.73
